sensor_id;sensor_type;location;lat;lon;timestamp;P1;durP1;ratioP1;P2;durP2;ratioP2
77078;SDS011;66004;55.096;38.760;2023-01-30T00:01:25;21.25;;;7.65;;
77078;SDS011;66004;55.096;38.760;2023-01-30T00:03:53;20.40;;;8.57;;
77078;SDS011;66004;55.096;38.760;2023-01-30T00:06:19;17.58;;;7.85;;
77078;SDS011;66004;55.096;38.760;2023-01-30T00:08:45;16.15;;;6.88;;
77078;SDS011;66004;55.096;38.760;2023-01-30T00:11:11;19.13;;;8.00;;
77078;SDS011;66004;55.096;38.760;2023-01-30T00:13:38;19.02;;;7.63;;
77078;SDS011;66004;55.096;38.760;2023-01-30T00:16:06;21.08;;;8.05;;
77078;SDS011;66004;55.096;38.760;2023-01-30T00:18:34;17.27;;;7.00;;
77078;SDS011;66004;55.096;38.760;2023-01-30T00:21:01;23.15;;;7.68;;
77078;SDS011;66004;55.096;38.760;2023-01-30T00:23:28;20.42;;;8.25;;
77078;SDS011;66004;55.096;38.760;2023-01-30T00:25:55;19.17;;;7.43;;
77078;SDS011;66004;55.096;38.760;2023-01-30T00:28:21;18.27;;;7.47;;
77078;SDS011;66004;55.096;38.760;2023-01-30T00:30:47;20.15;;;7.30;;
77078;SDS011;66004;55.096;38.760;2023-01-30T00:33:17;19.67;;;8.23;;
77078;SDS011;66004;55.096;38.760;2023-01-30T00:35:44;16.27;;;7.70;;
77078;SDS011;66004;55.096;38.760;2023-01-30T00:38:11;24.42;;;9.05;;
77078;SDS011;66004;55.096;38.760;2023-01-30T00:40:37;16.75;;;7.88;;
77078;SDS011;66004;55.096;38.760;2023-01-30T00:43:03;17.27;;;8.02;;
77078;SDS011;66004;55.096;38.760;2023-01-30T00:45:47;18.77;;;8.38;;
77078;SDS011;66004;55.096;38.760;2023-01-30T00:48:33;18.15;;;7.22;;
77078;SDS011;66004;55.096;38.760;2023-01-30T00:50:59;16.67;;;7.75;;
77078;SDS011;66004;55.096;38.760;2023-01-30T00:53:24;17.80;;;7.35;;
77078;SDS011;66004;55.096;38.760;2023-01-30T00:55:53;17.30;;;7.60;;
77078;SDS011;66004;55.096;38.760;2023-01-30T00:58:20;20.92;;;7.80;;
77078;SDS011;66004;55.096;38.760;2023-01-30T01:00:47;17.15;;;7.80;;
77078;SDS011;66004;55.096;38.760;2023-01-30T01:03:13;20.83;;;7.90;;
77078;SDS011;66004;55.096;38.760;2023-01-30T01:05:39;25.55;;;7.93;;
77078;SDS011;66004;55.096;38.760;2023-01-30T01:08:05;19.55;;;8.20;;
77078;SDS011;66004;55.096;38.760;2023-01-30T01:10:31;19.58;;;8.10;;
77078;SDS011;66004;55.096;38.760;2023-01-30T01:12:57;16.27;;;7.32;;
77078;SDS011;66004;55.096;38.760;2023-01-30T01:15:23;20.00;;;9.02;;
77078;SDS011;66004;55.096;38.760;2023-01-30T01:17:50;19.08;;;7.50;;
77078;SDS011;66004;55.096;38.760;2023-01-30T01:20:16;17.00;;;7.88;;
77078;SDS011;66004;55.096;38.760;2023-01-30T01:22:43;19.70;;;8.30;;
77078;SDS011;66004;55.096;38.760;2023-01-30T01:25:09;20.17;;;8.13;;
77078;SDS011;66004;55.096;38.760;2023-01-30T01:27:35;19.13;;;7.70;;
77078;SDS011;66004;55.096;38.760;2023-01-30T01:32:27;18.27;;;7.40;;
77078;SDS011;66004;55.096;38.760;2023-01-30T01:34:52;20.98;;;8.07;;
77078;SDS011;66004;55.096;38.760;2023-01-30T01:37:18;20.90;;;7.95;;
77078;SDS011;66004;55.096;38.760;2023-01-30T01:39:43;18.77;;;7.65;;
77078;SDS011;66004;55.096;38.760;2023-01-30T01:42:28;27.23;;;8.63;;
77078;SDS011;66004;55.096;38.760;2023-01-30T01:50:14;18.23;;;7.50;;
77078;SDS011;66004;55.096;38.760;2023-01-30T01:52:47;21.63;;;8.75;;
77078;SDS011;66004;55.096;38.760;2023-01-30T01:55:16;22.50;;;8.65;;
77078;SDS011;66004;55.096;38.760;2023-01-30T01:57:49;20.05;;;7.93;;
77078;SDS011;66004;55.096;38.760;2023-01-30T02:00:23;18.25;;;7.55;;
77078;SDS011;66004;55.096;38.760;2023-01-30T02:05:37;22.48;;;7.80;;
77078;SDS011;66004;55.096;38.760;2023-01-30T02:08:10;18.35;;;7.90;;
77078;SDS011;66004;55.096;38.760;2023-01-30T02:13:23;17.90;;;8.43;;
77078;SDS011;66004;55.096;38.760;2023-01-30T02:15:49;21.13;;;8.05;;
77078;SDS011;66004;55.096;38.760;2023-01-30T02:18:15;18.40;;;7.63;;
77078;SDS011;66004;55.096;38.760;2023-01-30T02:40:28;20.92;;;8.30;;
77078;SDS011;66004;55.096;38.760;2023-01-30T02:43:14;19.98;;;8.07;;
77078;SDS011;66004;55.096;38.760;2023-01-30T02:46:04;20.35;;;8.40;;
77078;SDS011;66004;55.096;38.760;2023-01-30T02:53:31;19.55;;;8.35;;
77078;SDS011;66004;55.096;38.760;2023-01-30T02:55:58;18.65;;;8.85;;
77078;SDS011;66004;55.096;38.760;2023-01-30T03:01:00;19.75;;;7.82;;
77078;SDS011;66004;55.096;38.760;2023-01-30T03:04:08;19.55;;;8.05;;
77078;SDS011;66004;55.096;38.760;2023-01-30T03:10:08;19.90;;;7.63;;
77078;SDS011;66004;55.096;38.760;2023-01-30T03:18:24;22.27;;;10.02;;
77078;SDS011;66004;55.096;38.760;2023-01-30T03:20:49;19.00;;;7.57;;
77078;SDS011;66004;55.096;38.760;2023-01-30T03:23:15;19.98;;;8.82;;
77078;SDS011;66004;55.096;38.760;2023-01-30T03:25:42;19.45;;;8.05;;
77078;SDS011;66004;55.096;38.760;2023-01-30T03:28:09;17.80;;;7.80;;
77078;SDS011;66004;55.096;38.760;2023-01-30T03:30:39;25.05;;;8.70;;
77078;SDS011;66004;55.096;38.760;2023-01-30T03:33:04;19.25;;;7.55;;
77078;SDS011;66004;55.096;38.760;2023-01-30T03:35:30;23.90;;;9.65;;
77078;SDS011;66004;55.096;38.760;2023-01-30T03:37:56;20.75;;;9.00;;
77078;SDS011;66004;55.096;38.760;2023-01-30T03:40:22;18.80;;;7.80;;
77078;SDS011;66004;55.096;38.760;2023-01-30T03:42:48;20.02;;;9.35;;
77078;SDS011;66004;55.096;38.760;2023-01-30T03:45:14;22.08;;;9.57;;
77078;SDS011;66004;55.096;38.760;2023-01-30T03:47:39;18.10;;;8.50;;
77078;SDS011;66004;55.096;38.760;2023-01-30T03:50:05;21.38;;;8.55;;
77078;SDS011;66004;55.096;38.760;2023-01-30T03:52:33;17.05;;;8.05;;
77078;SDS011;66004;55.096;38.760;2023-01-30T03:54:59;18.77;;;7.72;;
77078;SDS011;66004;55.096;38.760;2023-01-30T03:57:24;18.42;;;8.40;;
77078;SDS011;66004;55.096;38.760;2023-01-30T03:59:50;17.67;;;7.28;;
77078;SDS011;66004;55.096;38.760;2023-01-30T04:02:15;21.58;;;8.52;;
77078;SDS011;66004;55.096;38.760;2023-01-30T04:04:45;18.20;;;9.15;;
77078;SDS011;66004;55.096;38.760;2023-01-30T04:07:10;18.65;;;7.05;;
77078;SDS011;66004;55.096;38.760;2023-01-30T04:09:36;15.43;;;7.53;;
77078;SDS011;66004;55.096;38.760;2023-01-30T04:12:01;22.70;;;8.70;;
77078;SDS011;66004;55.096;38.760;2023-01-30T04:14:27;21.77;;;9.15;;
77078;SDS011;66004;55.096;38.760;2023-01-30T04:16:52;18.33;;;7.97;;
77078;SDS011;66004;55.096;38.760;2023-01-30T04:19:18;20.98;;;9.20;;
77078;SDS011;66004;55.096;38.760;2023-01-30T04:21:43;18.60;;;9.30;;
77078;SDS011;66004;55.096;38.760;2023-01-30T04:24:09;21.95;;;9.35;;
77078;SDS011;66004;55.096;38.760;2023-01-30T04:26:37;21.52;;;7.55;;
77078;SDS011;66004;55.096;38.760;2023-01-30T04:29:03;20.33;;;8.63;;
77078;SDS011;66004;55.096;38.760;2023-01-30T04:31:28;21.40;;;8.55;;
77078;SDS011;66004;55.096;38.760;2023-01-30T04:33:54;20.63;;;8.85;;
77078;SDS011;66004;55.096;38.760;2023-01-30T04:36:19;23.45;;;9.63;;
77078;SDS011;66004;55.096;38.760;2023-01-30T04:38:45;20.58;;;9.25;;
77078;SDS011;66004;55.096;38.760;2023-01-30T04:41:10;22.00;;;9.70;;
77078;SDS011;66004;55.096;38.760;2023-01-30T04:43:36;20.58;;;9.93;;
77078;SDS011;66004;55.096;38.760;2023-01-30T04:46:02;21.55;;;10.35;;
77078;SDS011;66004;55.096;38.760;2023-01-30T04:48:27;19.77;;;7.57;;
77078;SDS011;66004;55.096;38.760;2023-01-30T04:50:53;23.15;;;9.55;;
77078;SDS011;66004;55.096;38.760;2023-01-30T04:53:20;17.98;;;8.88;;
77078;SDS011;66004;55.096;38.760;2023-01-30T04:58:12;20.92;;;7.97;;
77078;SDS011;66004;55.096;38.760;2023-01-30T05:00:38;22.58;;;8.30;;
77078;SDS011;66004;55.096;38.760;2023-01-30T05:03:03;20.38;;;8.70;;
77078;SDS011;66004;55.096;38.760;2023-01-30T05:05:30;22.73;;;8.70;;
77078;SDS011;66004;55.096;38.760;2023-01-30T05:07:56;16.55;;;7.40;;
77078;SDS011;66004;55.096;38.760;2023-01-30T05:10:21;22.05;;;9.00;;
77078;SDS011;66004;55.096;38.760;2023-01-30T05:12:47;25.75;;;10.02;;
77078;SDS011;66004;55.096;38.760;2023-01-30T05:15:13;23.35;;;10.15;;
77078;SDS011;66004;55.096;38.760;2023-01-30T05:17:38;21.73;;;9.50;;
77078;SDS011;66004;55.096;38.760;2023-01-30T05:20:05;19.90;;;9.65;;
77078;SDS011;66004;55.096;38.760;2023-01-30T05:22:32;23.90;;;10.38;;
77078;SDS011;66004;55.096;38.760;2023-01-30T05:24:58;20.45;;;8.88;;
77078;SDS011;66004;55.096;38.760;2023-01-30T05:27:23;21.05;;;8.88;;
77078;SDS011;66004;55.096;38.760;2023-01-30T05:29:49;19.30;;;9.73;;
77078;SDS011;66004;55.096;38.760;2023-01-30T05:32:15;22.70;;;8.55;;
77078;SDS011;66004;55.096;38.760;2023-01-30T05:34:41;17.05;;;8.52;;
77078;SDS011;66004;55.096;38.760;2023-01-30T05:37:07;20.02;;;9.07;;
77078;SDS011;66004;55.096;38.760;2023-01-30T05:39:33;24.83;;;9.55;;
77078;SDS011;66004;55.096;38.760;2023-01-30T05:41:59;24.38;;;9.60;;
77078;SDS011;66004;55.096;38.760;2023-01-30T05:44:24;20.98;;;8.32;;
77078;SDS011;66004;55.096;38.760;2023-01-30T05:46:50;19.85;;;8.25;;
77078;SDS011;66004;55.096;38.760;2023-01-30T05:49:15;21.33;;;8.15;;
77078;SDS011;66004;55.096;38.760;2023-01-30T05:51:41;21.05;;;8.63;;
77078;SDS011;66004;55.096;38.760;2023-01-30T05:54:07;21.25;;;8.70;;
77078;SDS011;66004;55.096;38.760;2023-01-30T05:56:32;25.42;;;9.82;;
77078;SDS011;66004;55.096;38.760;2023-01-30T05:58:59;21.60;;;9.43;;
77078;SDS011;66004;55.096;38.760;2023-01-30T06:01:26;26.92;;;12.20;;
77078;SDS011;66004;55.096;38.760;2023-01-30T06:03:53;21.17;;;9.80;;
77078;SDS011;66004;55.096;38.760;2023-01-30T06:06:19;21.58;;;8.77;;
77078;SDS011;66004;55.096;38.760;2023-01-30T06:08:46;19.63;;;8.70;;
77078;SDS011;66004;55.096;38.760;2023-01-30T06:13:39;26.63;;;8.85;;
77078;SDS011;66004;55.096;38.760;2023-01-30T06:16:05;23.48;;;8.55;;
77078;SDS011;66004;55.096;38.760;2023-01-30T06:18:32;22.77;;;10.27;;
77078;SDS011;66004;55.096;38.760;2023-01-30T06:20:58;23.25;;;8.85;;
77078;SDS011;66004;55.096;38.760;2023-01-30T06:23:24;19.83;;;9.63;;
77078;SDS011;66004;55.096;38.760;2023-01-30T06:25:50;21.77;;;8.88;;
77078;SDS011;66004;55.096;38.760;2023-01-30T06:28:16;18.95;;;9.70;;
77078;SDS011;66004;55.096;38.760;2023-01-30T06:30:43;23.10;;;9.70;;
77078;SDS011;66004;55.096;38.760;2023-01-30T06:33:09;20.20;;;8.95;;
77078;SDS011;66004;55.096;38.760;2023-01-30T06:35:38;20.65;;;9.07;;
77078;SDS011;66004;55.096;38.760;2023-01-30T06:38:05;20.80;;;9.63;;
77078;SDS011;66004;55.096;38.760;2023-01-30T06:40:33;22.48;;;10.27;;
77078;SDS011;66004;55.096;38.760;2023-01-30T06:42:59;22.02;;;10.68;;
77078;SDS011;66004;55.096;38.760;2023-01-30T06:45:24;23.98;;;8.45;;
77078;SDS011;66004;55.096;38.760;2023-01-30T06:47:51;21.63;;;9.82;;
77078;SDS011;66004;55.096;38.760;2023-01-30T06:50:19;22.67;;;9.43;;
77078;SDS011;66004;55.096;38.760;2023-01-30T06:52:47;21.58;;;8.93;;
77078;SDS011;66004;55.096;38.760;2023-01-30T06:55:15;21.00;;;8.60;;
77078;SDS011;66004;55.096;38.760;2023-01-30T06:57:42;20.95;;;9.18;;
77078;SDS011;66004;55.096;38.760;2023-01-30T07:02:35;19.40;;;8.50;;
77078;SDS011;66004;55.096;38.760;2023-01-30T07:05:01;20.13;;;8.85;;
77078;SDS011;66004;55.096;38.760;2023-01-30T07:07:28;19.92;;;9.35;;
77078;SDS011;66004;55.096;38.760;2023-01-30T07:12:19;18.58;;;7.90;;
77078;SDS011;66004;55.096;38.760;2023-01-30T07:14:45;21.08;;;8.20;;
77078;SDS011;66004;55.096;38.760;2023-01-30T07:17:10;20.55;;;8.55;;
77078;SDS011;66004;55.096;38.760;2023-01-30T07:19:36;22.20;;;9.70;;
77078;SDS011;66004;55.096;38.760;2023-01-30T07:22:03;20.98;;;9.10;;
77078;SDS011;66004;55.096;38.760;2023-01-30T07:24:29;17.30;;;8.05;;
77078;SDS011;66004;55.096;38.760;2023-01-30T07:26:55;18.67;;;8.75;;
77078;SDS011;66004;55.096;38.760;2023-01-30T07:29:20;21.63;;;8.95;;
77078;SDS011;66004;55.096;38.760;2023-01-30T07:31:46;14.02;;;5.93;;
77078;SDS011;66004;55.096;38.760;2023-01-30T07:34:11;19.58;;;8.40;;
77078;SDS011;66004;55.096;38.760;2023-01-30T07:36:37;17.85;;;7.78;;
77078;SDS011;66004;55.096;38.760;2023-01-30T07:39:03;18.48;;;8.43;;
77078;SDS011;66004;55.096;38.760;2023-01-30T07:44:00;21.33;;;7.38;;
77078;SDS011;66004;55.096;38.760;2023-01-30T07:46:26;18.58;;;8.30;;
77078;SDS011;66004;55.096;38.760;2023-01-30T07:48:59;20.15;;;7.72;;
77078;SDS011;66004;55.096;38.760;2023-01-30T07:51:31;19.15;;;8.25;;
77078;SDS011;66004;55.096;38.760;2023-01-30T07:53:57;20.70;;;9.05;;
77078;SDS011;66004;55.096;38.760;2023-01-30T07:56:24;20.33;;;8.73;;
77078;SDS011;66004;55.096;38.760;2023-01-30T07:58:50;16.73;;;8.25;;
77078;SDS011;66004;55.096;38.760;2023-01-30T08:01:16;19.23;;;8.50;;
77078;SDS011;66004;55.096;38.760;2023-01-30T08:06:09;16.00;;;7.90;;
77078;SDS011;66004;55.096;38.760;2023-01-30T08:08:36;18.98;;;8.38;;
77078;SDS011;66004;55.096;38.760;2023-01-30T08:11:02;19.77;;;8.45;;
77078;SDS011;66004;55.096;38.760;2023-01-30T08:13:28;19.13;;;8.77;;
77078;SDS011;66004;55.096;38.760;2023-01-30T08:15:53;18.17;;;8.45;;
77078;SDS011;66004;55.096;38.760;2023-01-30T08:18:19;18.92;;;8.65;;
77078;SDS011;66004;55.096;38.760;2023-01-30T08:20:44;15.38;;;8.05;;
77078;SDS011;66004;55.096;38.760;2023-01-30T08:23:10;19.92;;;7.95;;
77078;SDS011;66004;55.096;38.760;2023-01-30T08:25:36;16.30;;;7.10;;
77078;SDS011;66004;55.096;38.760;2023-01-30T08:28:02;20.17;;;9.15;;
77078;SDS011;66004;55.096;38.760;2023-01-30T08:30:28;19.25;;;9.27;;
77078;SDS011;66004;55.096;38.760;2023-01-30T08:32:54;18.45;;;8.75;;
77078;SDS011;66004;55.096;38.760;2023-01-30T08:37:46;18.45;;;7.60;;
77078;SDS011;66004;55.096;38.760;2023-01-30T08:40:12;21.45;;;8.35;;
77078;SDS011;66004;55.096;38.760;2023-01-30T08:42:38;18.65;;;8.60;;
77078;SDS011;66004;55.096;38.760;2023-01-30T08:45:04;17.67;;;7.65;;
77078;SDS011;66004;55.096;38.760;2023-01-30T08:53:26;18.65;;;7.68;;
77078;SDS011;66004;55.096;38.760;2023-01-30T08:55:52;17.58;;;8.20;;
77078;SDS011;66004;55.096;38.760;2023-01-30T08:58:21;16.98;;;7.93;;
77078;SDS011;66004;55.096;38.760;2023-01-30T09:00:46;19.83;;;8.38;;
77078;SDS011;66004;55.096;38.760;2023-01-30T09:03:13;16.95;;;8.25;;
77078;SDS011;66004;55.096;38.760;2023-01-30T09:05:39;16.98;;;6.88;;
77078;SDS011;66004;55.096;38.760;2023-01-30T09:08:04;17.40;;;7.38;;
77078;SDS011;66004;55.096;38.760;2023-01-30T09:10:30;16.92;;;7.78;;
77078;SDS011;66004;55.096;38.760;2023-01-30T09:12:56;16.73;;;8.02;;
77078;SDS011;66004;55.096;38.760;2023-01-30T09:15:21;17.30;;;7.93;;
77078;SDS011;66004;55.096;38.760;2023-01-30T09:17:47;16.58;;;7.32;;
77078;SDS011;66004;55.096;38.760;2023-01-30T09:20:13;17.95;;;7.70;;
77078;SDS011;66004;55.096;38.760;2023-01-30T09:22:39;18.17;;;7.93;;
77078;SDS011;66004;55.096;38.760;2023-01-30T09:25:04;19.13;;;9.18;;
77078;SDS011;66004;55.096;38.760;2023-01-30T09:29:56;20.77;;;9.48;;
77078;SDS011;66004;55.096;38.760;2023-01-30T09:32:22;16.67;;;7.50;;
77078;SDS011;66004;55.096;38.760;2023-01-30T09:34:47;16.35;;;7.40;;
77078;SDS011;66004;55.096;38.760;2023-01-30T09:37:13;14.95;;;6.78;;
77078;SDS011;66004;55.096;38.760;2023-01-30T09:39:39;17.23;;;7.82;;
77078;SDS011;66004;55.096;38.760;2023-01-30T09:42:21;13.30;;;7.10;;
77078;SDS011;66004;55.096;38.760;2023-01-30T09:47:37;14.52;;;7.70;;
77078;SDS011;66004;55.096;38.760;2023-01-30T09:53:21;17.85;;;7.35;;
77078;SDS011;66004;55.096;38.760;2023-01-30T09:55:48;16.73;;;7.13;;
77078;SDS011;66004;55.096;38.760;2023-01-30T09:58:18;16.20;;;8.07;;
77078;SDS011;66004;55.096;38.760;2023-01-30T10:00:47;15.85;;;7.82;;
77078;SDS011;66004;55.096;38.760;2023-01-30T10:03:28;16.33;;;7.60;;
77078;SDS011;66004;55.096;38.760;2023-01-30T10:06:03;16.70;;;7.10;;
77078;SDS011;66004;55.096;38.760;2023-01-30T10:14:31;16.25;;;8.23;;
77078;SDS011;66004;55.096;38.760;2023-01-30T10:26:31;11.82;;;6.40;;
77078;SDS011;66004;55.096;38.760;2023-01-30T10:28:56;19.02;;;7.28;;
77078;SDS011;66004;55.096;38.760;2023-01-30T10:31:41;17.23;;;7.50;;
77078;SDS011;66004;55.096;38.760;2023-01-30T10:34:13;12.63;;;6.60;;
77078;SDS011;66004;55.096;38.760;2023-01-30T10:37:04;14.55;;;7.05;;
77078;SDS011;66004;55.096;38.760;2023-01-30T10:39:50;10.80;;;5.32;;
77078;SDS011;66004;55.096;38.760;2023-01-30T10:44:53;11.95;;;6.05;;
77078;SDS011;66004;55.096;38.760;2023-01-30T10:49:56;15.73;;;6.70;;
77078;SDS011;66004;55.096;38.760;2023-01-30T10:52:41;14.90;;;6.40;;
77078;SDS011;66004;55.096;38.760;2023-01-30T11:00:25;13.15;;;6.95;;
77078;SDS011;66004;55.096;38.760;2023-01-30T11:05:46;13.80;;;5.20;;
77078;SDS011;66004;55.096;38.760;2023-01-30T11:10:45;14.80;;;5.63;;
77078;SDS011;66004;55.096;38.760;2023-01-30T11:13:29;17.30;;;5.70;;
77078;SDS011;66004;55.096;38.760;2023-01-30T11:15:57;14.65;;;6.63;;
77078;SDS011;66004;55.096;38.760;2023-01-30T11:18:43;15.95;;;6.78;;
77078;SDS011;66004;55.096;38.760;2023-01-30T11:21:45;11.40;;;5.75;;
77078;SDS011;66004;55.096;38.760;2023-01-30T11:24:20;12.00;;;5.65;;
77078;SDS011;66004;55.096;38.760;2023-01-30T11:26:48;14.45;;;7.10;;
77078;SDS011;66004;55.096;38.760;2023-01-30T11:29:27;16.60;;;6.43;;
77078;SDS011;66004;55.096;38.760;2023-01-30T11:31:55;11.73;;;6.20;;
77078;SDS011;66004;55.096;38.760;2023-01-30T11:34:25;14.48;;;7.07;;
77078;SDS011;66004;55.096;38.760;2023-01-30T11:36:51;16.80;;;6.50;;
77078;SDS011;66004;55.096;38.760;2023-01-30T11:39:18;14.25;;;6.50;;
77078;SDS011;66004;55.096;38.760;2023-01-30T11:44:26;11.95;;;5.47;;
77078;SDS011;66004;55.096;38.760;2023-01-30T11:46:53;14.57;;;7.78;;
77078;SDS011;66004;55.096;38.760;2023-01-30T11:49:23;12.73;;;5.85;;
77078;SDS011;66004;55.096;38.760;2023-01-30T11:51:55;16.52;;;6.22;;
77078;SDS011;66004;55.096;38.760;2023-01-30T11:54:31;14.77;;;7.53;;
77078;SDS011;66004;55.096;38.760;2023-01-30T11:57:00;12.88;;;6.05;;
77078;SDS011;66004;55.096;38.760;2023-01-30T12:02:03;13.13;;;6.53;;
77078;SDS011;66004;55.096;38.760;2023-01-30T12:04:58;11.48;;;5.50;;
77078;SDS011;66004;55.096;38.760;2023-01-30T12:07:30;10.18;;;5.55;;
77078;SDS011;66004;55.096;38.760;2023-01-30T12:09:58;12.48;;;5.82;;
77078;SDS011;66004;55.096;38.760;2023-01-30T12:12:28;11.50;;;6.28;;
77078;SDS011;66004;55.096;38.760;2023-01-30T12:15:00;13.00;;;6.15;;
77078;SDS011;66004;55.096;38.760;2023-01-30T12:17:50;12.90;;;6.60;;
77078;SDS011;66004;55.096;38.760;2023-01-30T12:23:11;11.73;;;6.05;;
77078;SDS011;66004;55.096;38.760;2023-01-30T12:25:56;11.05;;;5.72;;
77078;SDS011;66004;55.096;38.760;2023-01-30T12:31:11;11.45;;;5.63;;
77078;SDS011;66004;55.096;38.760;2023-01-30T12:33:43;11.05;;;5.00;;
77078;SDS011;66004;55.096;38.760;2023-01-30T12:36:15;12.40;;;5.93;;
77078;SDS011;66004;55.096;38.760;2023-01-30T12:46:55;13.13;;;6.35;;
77078;SDS011;66004;55.096;38.760;2023-01-30T12:50:03;11.63;;;6.47;;
77078;SDS011;66004;55.096;38.760;2023-01-30T12:52:46;9.75;;;5.18;;
77078;SDS011;66004;55.096;38.760;2023-01-30T13:03:48;9.68;;;5.25;;
77078;SDS011;66004;55.096;38.760;2023-01-30T13:14:07;9.43;;;4.85;;
77078;SDS011;66004;55.096;38.760;2023-01-30T13:16:38;10.55;;;4.95;;
77078;SDS011;66004;55.096;38.760;2023-01-30T13:19:19;10.32;;;5.53;;
77078;SDS011;66004;55.096;38.760;2023-01-30T13:21:47;10.30;;;4.82;;
77078;SDS011;66004;55.096;38.760;2023-01-30T13:27:18;8.43;;;4.15;;
77078;SDS011;66004;55.096;38.760;2023-01-30T13:32:20;10.45;;;4.82;;
77078;SDS011;66004;55.096;38.760;2023-01-30T13:35:19;8.38;;;4.35;;
77078;SDS011;66004;55.096;38.760;2023-01-30T13:37:53;10.05;;;4.30;;
77078;SDS011;66004;55.096;38.760;2023-01-30T13:40:21;8.10;;;4.35;;
77078;SDS011;66004;55.096;38.760;2023-01-30T13:43:18;6.85;;;3.80;;
77078;SDS011;66004;55.096;38.760;2023-01-30T13:45:45;9.65;;;5.25;;
77078;SDS011;66004;55.096;38.760;2023-01-30T13:56:37;8.13;;;4.15;;
77078;SDS011;66004;55.096;38.760;2023-01-30T14:04:44;6.68;;;3.40;;
77078;SDS011;66004;55.096;38.760;2023-01-30T14:09:36;7.65;;;3.95;;
77078;SDS011;66004;55.096;38.760;2023-01-30T14:12:05;6.50;;;3.42;;
77078;SDS011;66004;55.096;38.760;2023-01-30T14:14:38;8.18;;;3.85;;
77078;SDS011;66004;55.096;38.760;2023-01-30T14:32:56;5.20;;;3.08;;
77078;SDS011;66004;55.096;38.760;2023-01-30T14:35:24;3.75;;;2.33;;
77078;SDS011;66004;55.096;38.760;2023-01-30T14:38:11;5.88;;;3.60;;
77078;SDS011;66004;55.096;38.760;2023-01-30T14:40:43;5.32;;;2.97;;
77078;SDS011;66004;55.096;38.760;2023-01-30T14:45:48;7.70;;;3.63;;
77078;SDS011;66004;55.096;38.760;2023-01-30T15:09:02;6.53;;;3.30;;
77078;SDS011;66004;55.096;38.760;2023-01-30T15:11:28;6.15;;;3.50;;
77078;SDS011;66004;55.096;38.760;2023-01-30T15:16:53;6.20;;;2.78;;
77078;SDS011;66004;55.096;38.760;2023-01-30T15:22:27;7.32;;;3.90;;
77078;SDS011;66004;55.096;38.760;2023-01-30T15:33:21;4.47;;;2.80;;
77078;SDS011;66004;55.096;38.760;2023-01-30T15:35:48;5.18;;;2.85;;
77078;SDS011;66004;55.096;38.760;2023-01-30T15:38:22;5.82;;;2.97;;
77078;SDS011;66004;55.096;38.760;2023-01-30T15:40:49;5.93;;;2.80;;
77078;SDS011;66004;55.096;38.760;2023-01-30T15:51:49;4.68;;;2.80;;
77078;SDS011;66004;55.096;38.760;2023-01-30T15:54:17;6.57;;;3.25;;
77078;SDS011;66004;55.096;38.760;2023-01-30T15:56:47;6.72;;;3.00;;
77078;SDS011;66004;55.096;38.760;2023-01-30T15:59:27;5.53;;;2.83;;
77078;SDS011;66004;55.096;38.760;2023-01-30T16:02:10;5.68;;;3.03;;
77078;SDS011;66004;55.096;38.760;2023-01-30T16:05:01;4.68;;;2.78;;
77078;SDS011;66004;55.096;38.760;2023-01-30T16:07:36;5.82;;;3.10;;
77078;SDS011;66004;55.096;38.760;2023-01-30T16:10:01;4.15;;;2.47;;
77078;SDS011;66004;55.096;38.760;2023-01-30T16:12:29;3.85;;;2.55;;
77078;SDS011;66004;55.096;38.760;2023-01-30T16:14:56;5.10;;;2.80;;
77078;SDS011;66004;55.096;38.760;2023-01-30T16:17:26;5.00;;;2.42;;
77078;SDS011;66004;55.096;38.760;2023-01-30T16:19:54;4.35;;;2.60;;
77078;SDS011;66004;55.096;38.760;2023-01-30T16:22:23;6.45;;;3.08;;
77078;SDS011;66004;55.096;38.760;2023-01-30T16:24:54;4.22;;;2.33;;
77078;SDS011;66004;55.096;38.760;2023-01-30T16:29:59;4.60;;;2.60;;
77078;SDS011;66004;55.096;38.760;2023-01-30T16:32:29;6.85;;;2.65;;
77078;SDS011;66004;55.096;38.760;2023-01-30T16:37:51;4.43;;;2.47;;
77078;SDS011;66004;55.096;38.760;2023-01-30T16:40:19;5.65;;;2.58;;
77078;SDS011;66004;55.096;38.760;2023-01-30T16:43:00;9.52;;;2.75;;
77078;SDS011;66004;55.096;38.760;2023-01-30T16:51:10;6.32;;;3.05;;
77078;SDS011;66004;55.096;38.760;2023-01-30T16:53:51;7.43;;;3.50;;
77078;SDS011;66004;55.096;38.760;2023-01-30T16:56:23;4.25;;;2.42;;
77078;SDS011;66004;55.096;38.760;2023-01-30T16:58:51;4.93;;;2.30;;
77078;SDS011;66004;55.096;38.760;2023-01-30T17:01:21;5.07;;;2.92;;
77078;SDS011;66004;55.096;38.760;2023-01-30T17:03:49;5.60;;;2.97;;
77078;SDS011;66004;55.096;38.760;2023-01-30T17:06:43;4.97;;;2.35;;
77078;SDS011;66004;55.096;38.760;2023-01-30T17:09:43;4.50;;;2.67;;
77078;SDS011;66004;55.096;38.760;2023-01-30T17:17:38;6.18;;;2.80;;
77078;SDS011;66004;55.096;38.760;2023-01-30T17:20:08;5.15;;;2.75;;
77078;SDS011;66004;55.096;38.760;2023-01-30T17:22:36;6.85;;;2.83;;
77078;SDS011;66004;55.096;38.760;2023-01-30T17:25:04;7.10;;;2.85;;
77078;SDS011;66004;55.096;38.760;2023-01-30T17:27:31;6.45;;;2.65;;
77078;SDS011;66004;55.096;38.760;2023-01-30T17:29:58;5.00;;;2.88;;
77078;SDS011;66004;55.096;38.760;2023-01-30T17:32:24;5.40;;;2.90;;
77078;SDS011;66004;55.096;38.760;2023-01-30T17:34:49;4.93;;;2.90;;
77078;SDS011;66004;55.096;38.760;2023-01-30T17:37:16;6.78;;;3.63;;
77078;SDS011;66004;55.096;38.760;2023-01-30T17:39:47;4.68;;;3.35;;
77078;SDS011;66004;55.096;38.760;2023-01-30T17:42:13;4.97;;;2.75;;
77078;SDS011;66004;55.096;38.760;2023-01-30T17:44:42;5.32;;;2.85;;
77078;SDS011;66004;55.096;38.760;2023-01-30T17:47:10;6.55;;;3.33;;
77078;SDS011;66004;55.096;38.760;2023-01-30T17:49:36;8.32;;;3.53;;
77078;SDS011;66004;55.096;38.760;2023-01-30T17:52:02;3.92;;;2.33;;
77078;SDS011;66004;55.096;38.760;2023-01-30T17:54:28;4.90;;;3.55;;
77078;SDS011;66004;55.096;38.760;2023-01-30T17:56:54;6.78;;;3.83;;
77078;SDS011;66004;55.096;38.760;2023-01-30T17:59:24;5.65;;;3.28;;
77078;SDS011;66004;55.096;38.760;2023-01-30T18:01:50;5.22;;;3.63;;
77078;SDS011;66004;55.096;38.760;2023-01-30T18:06:44;5.97;;;3.17;;
77078;SDS011;66004;55.096;38.760;2023-01-30T18:09:18;4.47;;;2.72;;
77078;SDS011;66004;55.096;38.760;2023-01-30T18:11:46;7.22;;;3.60;;
77078;SDS011;66004;55.096;38.760;2023-01-30T18:14:12;7.53;;;3.63;;
77078;SDS011;66004;55.096;38.760;2023-01-30T18:16:38;8.23;;;3.50;;
77078;SDS011;66004;55.096;38.760;2023-01-30T18:19:05;4.78;;;3.28;;
77078;SDS011;66004;55.096;38.760;2023-01-30T18:21:33;8.45;;;3.60;;
77078;SDS011;66004;55.096;38.760;2023-01-30T18:24:00;7.15;;;3.72;;
77078;SDS011;66004;55.096;38.760;2023-01-30T18:26:26;5.45;;;2.70;;
77078;SDS011;66004;55.096;38.760;2023-01-30T18:28:55;5.47;;;3.25;;
77078;SDS011;66004;55.096;38.760;2023-01-30T18:31:21;5.85;;;3.28;;
77078;SDS011;66004;55.096;38.760;2023-01-30T18:33:49;7.50;;;3.72;;
77078;SDS011;66004;55.096;38.760;2023-01-30T18:36:16;5.95;;;3.13;;
77078;SDS011;66004;55.096;38.760;2023-01-30T18:38:43;7.72;;;3.38;;
77078;SDS011;66004;55.096;38.760;2023-01-30T18:41:19;7.75;;;3.63;;
77078;SDS011;66004;55.096;38.760;2023-01-30T18:43:46;7.82;;;3.47;;
77078;SDS011;66004;55.096;38.760;2023-01-30T18:46:17;13.10;;;3.55;;